sensor_id;sensor_type;location;lat;lon;timestamp;temperature;humidity
17669;DHT22;8953;48.694;8.940;2022-07-06T00:01:49;14.30;99.90
17669;DHT22;8953;48.694;8.940;2022-07-06T00:04:18;14.30;99.90
17669;DHT22;8953;48.694;8.940;2022-07-06T00:06:45;14.20;99.90
17669;DHT22;8953;48.694;8.940;2022-07-06T00:09:13;14.20;99.90
17669;DHT22;8953;48.694;8.940;2022-07-06T00:11:40;14.10;99.90
17669;DHT22;8953;48.694;8.940;2022-07-06T00:14:07;14.10;99.90
17669;DHT22;8953;48.694;8.940;2022-07-06T00:16:35;14.10;99.90
17669;DHT22;8953;48.694;8.940;2022-07-06T00:19:02;14.00;99.90
17669;DHT22;8953;48.694;8.940;2022-07-06T00:21:30;14.00;99.90
17669;DHT22;8953;48.694;8.940;2022-07-06T00:23:58;14.00;99.90
17669;DHT22;8953;48.694;8.940;2022-07-06T00:26:25;13.90;99.90
17669;DHT22;8953;48.694;8.940;2022-07-06T00:28:52;13.90;99.90
17669;DHT22;8953;48.694;8.940;2022-07-06T00:31:19;13.90;99.90
17669;DHT22;8953;48.694;8.940;2022-07-06T00:33:46;13.90;99.90
17669;DHT22;8953;48.694;8.940;2022-07-06T00:36:13;13.80;99.90
17669;DHT22;8953;48.694;8.940;2022-07-06T00:38:42;13.80;99.90
17669;DHT22;8953;48.694;8.940;2022-07-06T00:41:09;13.70;99.90
17669;DHT22;8953;48.694;8.940;2022-07-06T00:43:50;13.60;99.90
17669;DHT22;8953;48.694;8.940;2022-07-06T00:46:18;13.60;99.90
17669;DHT22;8953;48.694;8.940;2022-07-06T00:48:45;13.50;99.90
17669;DHT22;8953;48.694;8.940;2022-07-06T00:51:12;13.50;99.90
17669;DHT22;8953;48.694;8.940;2022-07-06T00:53:42;13.50;99.90
17669;DHT22;8953;48.694;8.940;2022-07-06T00:56:10;13.40;99.90
17669;DHT22;8953;48.694;8.940;2022-07-06T00:58:37;13.40;99.90
17669;DHT22;8953;48.694;8.940;2022-07-06T01:01:04;13.30;99.90
17669;DHT22;8953;48.694;8.940;2022-07-06T01:03:32;13.30;99.90
17669;DHT22;8953;48.694;8.940;2022-07-06T01:06:00;13.30;99.90
17669;DHT22;8953;48.694;8.940;2022-07-06T01:08:28;13.30;99.90
17669;DHT22;8953;48.694;8.940;2022-07-06T01:10:56;13.20;99.90
17669;DHT22;8953;48.694;8.940;2022-07-06T01:13:25;13.20;99.90
17669;DHT22;8953;48.694;8.940;2022-07-06T01:15:52;13.20;99.90
17669;DHT22;8953;48.694;8.940;2022-07-06T01:18:20;13.20;99.90
17669;DHT22;8953;48.694;8.940;2022-07-06T01:20:49;13.20;99.90
17669;DHT22;8953;48.694;8.940;2022-07-06T01:23:16;13.20;99.90
17669;DHT22;8953;48.694;8.940;2022-07-06T01:25:43;13.20;99.90
17669;DHT22;8953;48.694;8.940;2022-07-06T01:28:10;13.30;99.90
17669;DHT22;8953;48.694;8.940;2022-07-06T01:30:38;13.30;99.90
17669;DHT22;8953;48.694;8.940;2022-07-06T01:33:05;13.30;99.90
17669;DHT22;8953;48.694;8.940;2022-07-06T01:35:33;13.40;99.90
17669;DHT22;8953;48.694;8.940;2022-07-06T01:38:03;13.30;99.90
17669;DHT22;8953;48.694;8.940;2022-07-06T01:40:31;13.30;99.90
17669;DHT22;8953;48.694;8.940;2022-07-06T01:42:58;13.30;99.90
17669;DHT22;8953;48.694;8.940;2022-07-06T01:45:31;13.20;99.90
17669;DHT22;8953;48.694;8.940;2022-07-06T01:47:59;13.20;99.90
17669;DHT22;8953;48.694;8.940;2022-07-06T01:50:26;13.20;99.90
17669;DHT22;8953;48.694;8.940;2022-07-06T01:52:53;13.20;99.90
17669;DHT22;8953;48.694;8.940;2022-07-06T01:55:22;13.20;99.90
17669;DHT22;8953;48.694;8.940;2022-07-06T01:57:49;13.20;99.90
17669;DHT22;8953;48.694;8.940;2022-07-06T02:00:16;13.20;99.90
17669;DHT22;8953;48.694;8.940;2022-07-06T02:02:43;13.20;99.90
17669;DHT22;8953;48.694;8.940;2022-07-06T02:05:10;13.20;99.90
17669;DHT22;8953;48.694;8.940;2022-07-06T02:07:38;13.20;99.90
17669;DHT22;8953;48.694;8.940;2022-07-06T02:10:05;13.20;99.90
17669;DHT22;8953;48.694;8.940;2022-07-06T02:12:34;13.10;99.90
17669;DHT22;8953;48.694;8.940;2022-07-06T02:15:01;13.10;99.90
17669;DHT22;8953;48.694;8.940;2022-07-06T02:17:29;13.10;99.90
17669;DHT22;8953;48.694;8.940;2022-07-06T02:19:56;13.10;99.90
17669;DHT22;8953;48.694;8.940;2022-07-06T02:22:23;13.10;99.90
17669;DHT22;8953;48.694;8.940;2022-07-06T02:24:50;13.10;99.90
17669;DHT22;8953;48.694;8.940;2022-07-06T02:27:17;13.10;99.90
17669;DHT22;8953;48.694;8.940;2022-07-06T02:29:46;13.00;99.90
17669;DHT22;8953;48.694;8.940;2022-07-06T02:32:13;13.00;99.90
17669;DHT22;8953;48.694;8.940;2022-07-06T02:34:40;12.90;99.90
17669;DHT22;8953;48.694;8.940;2022-07-06T02:37:07;12.90;99.90
17669;DHT22;8953;48.694;8.940;2022-07-06T02:39:34;12.80;99.90
17669;DHT22;8953;48.694;8.940;2022-07-06T02:42:02;12.80;99.90
17669;DHT22;8953;48.694;8.940;2022-07-06T02:44:29;12.70;99.90
17669;DHT22;8953;48.694;8.940;2022-07-06T02:46:59;12.70;99.90
17669;DHT22;8953;48.694;8.940;2022-07-06T02:49:26;12.60;99.90
17669;DHT22;8953;48.694;8.940;2022-07-06T02:51:53;12.60;99.90
17669;DHT22;8953;48.694;8.940;2022-07-06T02:54:20;12.60;99.90
17669;DHT22;8953;48.694;8.940;2022-07-06T02:56:47;12.60;99.90
17669;DHT22;8953;48.694;8.940;2022-07-06T02:59:18;12.50;99.90
17669;DHT22;8953;48.694;8.940;2022-07-06T03:01:45;12.50;99.90
17669;DHT22;8953;48.694;8.940;2022-07-06T03:04:13;12.40;99.90
17669;DHT22;8953;48.694;8.940;2022-07-06T03:06:41;12.40;99.90
17669;DHT22;8953;48.694;8.940;2022-07-06T03:09:08;12.40;99.90
17669;DHT22;8953;48.694;8.940;2022-07-06T03:11:35;12.30;99.90
17669;DHT22;8953;48.694;8.940;2022-07-06T03:14:03;12.30;99.90
17669;DHT22;8953;48.694;8.940;2022-07-06T03:16:30;12.30;99.90
17669;DHT22;8953;48.694;8.940;2022-07-06T03:18:57;12.30;99.90
17669;DHT22;8953;48.694;8.940;2022-07-06T03:21:26;12.30;99.90
17669;DHT22;8953;48.694;8.940;2022-07-06T03:23:53;12.20;99.90
17669;DHT22;8953;48.694;8.940;2022-07-06T03:26:20;12.20;99.90
17669;DHT22;8953;48.694;8.940;2022-07-06T03:28:47;12.20;99.90
17669;DHT22;8953;48.694;8.940;2022-07-06T03:31:14;12.20;99.90
17669;DHT22;8953;48.694;8.940;2022-07-06T03:33:42;12.20;99.90
17669;DHT22;8953;48.694;8.940;2022-07-06T03:36:09;12.10;99.90
17669;DHT22;8953;48.694;8.940;2022-07-06T03:38:38;12.10;99.90
17669;DHT22;8953;48.694;8.940;2022-07-06T03:41:05;12.10;99.90
17669;DHT22;8953;48.694;8.940;2022-07-06T03:43:32;12.10;99.90
17669;DHT22;8953;48.694;8.940;2022-07-06T03:45:59;12.10;99.90
17669;DHT22;8953;48.694;8.940;2022-07-06T03:48:26;12.00;99.90
17669;DHT22;8953;48.694;8.940;2022-07-06T03:50:54;12.00;99.90
17669;DHT22;8953;48.694;8.940;2022-07-06T03:53:21;12.10;99.90
17669;DHT22;8953;48.694;8.940;2022-07-06T03:55:50;12.10;99.90
17669;DHT22;8953;48.694;8.940;2022-07-06T03:58:31;12.10;99.90
17669;DHT22;8953;48.694;8.940;2022-07-06T04:00:59;12.10;99.90
17669;DHT22;8953;48.694;8.940;2022-07-06T04:03:26;12.10;99.90
17669;DHT22;8953;48.694;8.940;2022-07-06T04:05:53;12.20;99.90
17669;DHT22;8953;48.694;8.940;2022-07-06T04:08:20;12.20;99.90
17669;DHT22;8953;48.694;8.940;2022-07-06T04:10:47;12.30;99.90
17669;DHT22;8953;48.694;8.940;2022-07-06T04:13:16;12.30;99.90
17669;DHT22;8953;48.694;8.940;2022-07-06T04:15:43;12.40;99.90
17669;DHT22;8953;48.694;8.940;2022-07-06T04:18:11;12.50;99.90
17669;DHT22;8953;48.694;8.940;2022-07-06T04:20:38;12.50;99.90
17669;DHT22;8953;48.694;8.940;2022-07-06T04:23:05;12.50;99.90
17669;DHT22;8953;48.694;8.940;2022-07-06T04:25:33;12.60;99.90
17669;DHT22;8953;48.694;8.940;2022-07-06T04:28:01;12.70;99.90
17669;DHT22;8953;48.694;8.940;2022-07-06T04:30:29;12.80;99.90
17669;DHT22;8953;48.694;8.940;2022-07-06T04:32:57;12.90;99.90
17669;DHT22;8953;48.694;8.940;2022-07-06T04:35:24;12.90;99.90
17669;DHT22;8953;48.694;8.940;2022-07-06T04:37:51;13.00;99.90
17669;DHT22;8953;48.694;8.940;2022-07-06T04:40:18;13.10;99.90
17669;DHT22;8953;48.694;8.940;2022-07-06T04:42:47;13.20;99.90
17669;DHT22;8953;48.694;8.940;2022-07-06T04:45:14;13.40;99.90
17669;DHT22;8953;48.694;8.940;2022-07-06T04:47:42;13.50;99.90
17669;DHT22;8953;48.694;8.940;2022-07-06T04:50:11;13.60;99.90
17669;DHT22;8953;48.694;8.940;2022-07-06T04:52:38;13.80;99.90
17669;DHT22;8953;48.694;8.940;2022-07-06T04:55:06;13.80;99.90
17669;DHT22;8953;48.694;8.940;2022-07-06T04:57:34;13.90;99.90
17669;DHT22;8953;48.694;8.940;2022-07-06T05:00:02;14.00;99.90
17669;DHT22;8953;48.694;8.940;2022-07-06T05:02:30;14.10;99.90
17669;DHT22;8953;48.694;8.940;2022-07-06T05:04:59;14.20;99.90
17669;DHT22;8953;48.694;8.940;2022-07-06T05:07:26;14.50;99.90
17669;DHT22;8953;48.694;8.940;2022-07-06T05:09:56;14.80;99.90
17669;DHT22;8953;48.694;8.940;2022-07-06T05:12:23;15.00;99.90
17669;DHT22;8953;48.694;8.940;2022-07-06T05:14:51;15.10;99.90
17669;DHT22;8953;48.694;8.940;2022-07-06T05:17:18;15.20;99.90
17669;DHT22;8953;48.694;8.940;2022-07-06T05:19:45;15.20;99.90
17669;DHT22;8953;48.694;8.940;2022-07-06T05:22:13;15.50;99.90
17669;DHT22;8953;48.694;8.940;2022-07-06T05:24:41;15.80;99.90
17669;DHT22;8953;48.694;8.940;2022-07-06T05:27:08;16.50;99.90
17669;DHT22;8953;48.694;8.940;2022-07-06T05:29:35;17.20;99.90
17669;DHT22;8953;48.694;8.940;2022-07-06T05:32:03;18.10;99.90
17669;DHT22;8953;48.694;8.940;2022-07-06T05:34:30;19.20;99.90
17669;DHT22;8953;48.694;8.940;2022-07-06T05:36:57;20.20;99.90
17669;DHT22;8953;48.694;8.940;2022-07-06T05:39:26;20.90;99.90
17669;DHT22;8953;48.694;8.940;2022-07-06T05:41:53;21.60;99.90
17669;DHT22;8953;48.694;8.940;2022-07-06T05:44:20;22.30;99.90
17669;DHT22;8953;48.694;8.940;2022-07-06T05:46:47;22.80;99.90
17669;DHT22;8953;48.694;8.940;2022-07-06T05:49:14;23.30;99.90
17669;DHT22;8953;48.694;8.940;2022-07-06T05:51:59;23.80;99.90
17669;DHT22;8953;48.694;8.940;2022-07-06T05:54:27;24.40;99.20
17669;DHT22;8953;48.694;8.940;2022-07-06T05:56:54;24.70;97.40
17669;DHT22;8953;48.694;8.940;2022-07-06T05:59:21;25.00;96.60
17669;DHT22;8953;48.694;8.940;2022-07-06T06:01:49;25.60;95.30
17669;DHT22;8953;48.694;8.940;2022-07-06T06:04:16;25.80;93.00
17669;DHT22;8953;48.694;8.940;2022-07-06T06:06:43;26.40;92.50
17669;DHT22;8953;48.694;8.940;2022-07-06T06:09:10;26.80;90.30
17669;DHT22;8953;48.694;8.940;2022-07-06T06:11:38;27.10;88.90
17669;DHT22;8953;48.694;8.940;2022-07-06T06:14:05;27.30;87.40
17669;DHT22;8953;48.694;8.940;2022-07-06T06:16:33;27.50;85.90
17669;DHT22;8953;48.694;8.940;2022-07-06T06:19:00;27.80;84.40
17669;DHT22;8953;48.694;8.940;2022-07-06T06:21:27;28.20;82.90
17669;DHT22;8953;48.694;8.940;2022-07-06T06:23:54;28.50;81.90
17669;DHT22;8953;48.694;8.940;2022-07-06T06:26:21;28.80;80.00
17669;DHT22;8953;48.694;8.940;2022-07-06T06:28:49;29.20;78.70
17669;DHT22;8953;48.694;8.940;2022-07-06T06:31:16;29.40;77.60
17669;DHT22;8953;48.694;8.940;2022-07-06T06:33:44;29.80;75.50
17669;DHT22;8953;48.694;8.940;2022-07-06T06:36:11;30.10;76.00
17669;DHT22;8953;48.694;8.940;2022-07-06T06:38:38;30.30;74.10
17669;DHT22;8953;48.694;8.940;2022-07-06T06:41:05;30.60;73.30
17669;DHT22;8953;48.694;8.940;2022-07-06T06:43:32;31.00;71.20
17669;DHT22;8953;48.694;8.940;2022-07-06T06:46:01;30.90;70.50
17669;DHT22;8953;48.694;8.940;2022-07-06T06:48:28;31.20;70.10
17669;DHT22;8953;48.694;8.940;2022-07-06T06:50:57;31.30;69.50
17669;DHT22;8953;48.694;8.940;2022-07-06T06:53:24;31.60;68.40
17669;DHT22;8953;48.694;8.940;2022-07-06T06:55:51;31.70;67.40
17669;DHT22;8953;48.694;8.940;2022-07-06T06:58:18;31.20;65.20
17669;DHT22;8953;48.694;8.940;2022-07-06T07:00:45;30.50;68.20
17669;DHT22;8953;48.694;8.940;2022-07-06T07:03:14;30.00;70.20
17669;DHT22;8953;48.694;8.940;2022-07-06T07:05:41;30.20;68.90
17669;DHT22;8953;48.694;8.940;2022-07-06T07:08:08;30.90;67.10
17669;DHT22;8953;48.694;8.940;2022-07-06T07:10:35;31.70;65.70
17669;DHT22;8953;48.694;8.940;2022-07-06T07:13:03;32.20;63.90
17669;DHT22;8953;48.694;8.940;2022-07-06T07:15:30;32.50;64.10
17669;DHT22;8953;48.694;8.940;2022-07-06T07:17:57;31.90;63.40
17669;DHT22;8953;48.694;8.940;2022-07-06T07:20:25;32.00;63.00
17669;DHT22;8953;48.694;8.940;2022-07-06T07:22:55;32.20;63.40
17669;DHT22;8953;48.694;8.940;2022-07-06T07:25:22;32.80;63.40
17669;DHT22;8953;48.694;8.940;2022-07-06T07:27:49;33.10;62.50
17669;DHT22;8953;48.694;8.940;2022-07-06T07:30:16;33.80;61.20
17669;DHT22;8953;48.694;8.940;2022-07-06T07:32:44;34.20;59.60
17669;DHT22;8953;48.694;8.940;2022-07-06T07:35:11;34.40;58.90
17669;DHT22;8953;48.694;8.940;2022-07-06T07:37:39;34.00;59.80
17669;DHT22;8953;48.694;8.940;2022-07-06T07:40:07;33.70;58.40
17669;DHT22;8953;48.694;8.940;2022-07-06T07:42:35;34.00;59.70
17669;DHT22;8953;48.694;8.940;2022-07-06T07:45:06;34.40;58.30
17669;DHT22;8953;48.694;8.940;2022-07-06T07:47:33;34.40;58.30
17669;DHT22;8953;48.694;8.940;2022-07-06T07:50:00;34.40;58.40
17669;DHT22;8953;48.694;8.940;2022-07-06T07:52:28;35.00;58.00
17669;DHT22;8953;48.694;8.940;2022-07-06T07:54:56;35.10;57.60
17669;DHT22;8953;48.694;8.940;2022-07-06T07:57:23;35.60;57.30
17669;DHT22;8953;48.694;8.940;2022-07-06T07:59:50;36.00;56.90
17669;DHT22;8953;48.694;8.940;2022-07-06T08:02:18;36.10;54.60
17669;DHT22;8953;48.694;8.940;2022-07-06T08:04:45;35.70;54.90
17669;DHT22;8953;48.694;8.940;2022-07-06T08:07:12;34.90;55.80
17669;DHT22;8953;48.694;8.940;2022-07-06T08:09:39;34.90;57.50
17669;DHT22;8953;48.694;8.940;2022-07-06T08:12:08;35.60;56.30
17669;DHT22;8953;48.694;8.940;2022-07-06T08:14:36;36.20;54.60
17669;DHT22;8953;48.694;8.940;2022-07-06T08:17:04;36.40;53.90
17669;DHT22;8953;48.694;8.940;2022-07-06T08:19:31;36.30;53.60
17669;DHT22;8953;48.694;8.940;2022-07-06T08:21:58;36.30;54.70
17669;DHT22;8953;48.694;8.940;2022-07-06T08:24:25;36.30;55.50
17669;DHT22;8953;48.694;8.940;2022-07-06T08:26:52;36.70;53.20
17669;DHT22;8953;48.694;8.940;2022-07-06T08:29:21;36.10;54.70
17669;DHT22;8953;48.694;8.940;2022-07-06T08:31:48;36.80;54.70
17669;DHT22;8953;48.694;8.940;2022-07-06T08:34:16;36.80;53.70
17669;DHT22;8953;48.694;8.940;2022-07-06T08:36:43;37.00;53.20
17669;DHT22;8953;48.694;8.940;2022-07-06T08:39:10;37.20;54.20
17669;DHT22;8953;48.694;8.940;2022-07-06T08:41:38;37.00;52.20
17669;DHT22;8953;48.694;8.940;2022-07-06T08:44:08;36.40;53.10
17669;DHT22;8953;48.694;8.940;2022-07-06T08:46:38;36.80;55.70
17669;DHT22;8953;48.694;8.940;2022-07-06T08:49:06;37.00;53.50
17669;DHT22;8953;48.694;8.940;2022-07-06T08:51:35;37.30;53.80
17669;DHT22;8953;48.694;8.940;2022-07-06T08:54:03;36.90;51.60
17669;DHT22;8953;48.694;8.940;2022-07-06T08:56:30;37.20;54.60
17669;DHT22;8953;48.694;8.940;2022-07-06T08:58:58;37.70;51.90
17669;DHT22;8953;48.694;8.940;2022-07-06T09:01:25;37.60;52.80
17669;DHT22;8953;48.694;8.940;2022-07-06T09:03:55;37.70;52.00
17669;DHT22;8953;48.694;8.940;2022-07-06T09:06:24;38.20;52.30
17669;DHT22;8953;48.694;8.940;2022-07-06T09:08:53;37.40;50.90
17669;DHT22;8953;48.694;8.940;2022-07-06T09:11:21;37.60;52.90
17669;DHT22;8953;48.694;8.940;2022-07-06T09:13:50;37.40;53.20
17669;DHT22;8953;48.694;8.940;2022-07-06T09:16:17;38.00;53.10
17669;DHT22;8953;48.694;8.940;2022-07-06T09:18:45;38.60;51.20
17669;DHT22;8953;48.694;8.940;2022-07-06T09:21:22;38.30;51.70
17669;DHT22;8953;48.694;8.940;2022-07-06T09:23:53;38.10;51.60
17669;DHT22;8953;48.694;8.940;2022-07-06T09:26:21;38.30;50.00
17669;DHT22;8953;48.694;8.940;2022-07-06T09:28:49;37.30;51.10
17669;DHT22;8953;48.694;8.940;2022-07-06T09:31:16;37.90;51.90
17669;DHT22;8953;48.694;8.940;2022-07-06T09:33:58;38.60;51.20
17669;DHT22;8953;48.694;8.940;2022-07-06T09:36:42;38.70;51.00
17669;DHT22;8953;48.694;8.940;2022-07-06T09:39:22;37.90;50.50
17669;DHT22;8953;48.694;8.940;2022-07-06T09:41:51;37.80;51.20
17669;DHT22;8953;48.694;8.940;2022-07-06T09:44:22;37.70;50.40
17669;DHT22;8953;48.694;8.940;2022-07-06T09:46:50;37.80;51.80
17669;DHT22;8953;48.694;8.940;2022-07-06T09:49:18;38.30;49.70
17669;DHT22;8953;48.694;8.940;2022-07-06T09:51:47;37.90;50.80
17669;DHT22;8953;48.694;8.940;2022-07-06T09:54:15;37.20;52.10
17669;DHT22;8953;48.694;8.940;2022-07-06T09:56:44;37.60;50.80
17669;DHT22;8953;48.694;8.940;2022-07-06T09:59:15;36.60;51.30
17669;DHT22;8953;48.694;8.940;2022-07-06T10:01:42;37.30;52.60
17669;DHT22;8953;48.694;8.940;2022-07-06T10:04:11;37.90;51.10
17669;DHT22;8953;48.694;8.940;2022-07-06T10:06:40;38.30;50.40
17669;DHT22;8953;48.694;8.940;2022-07-06T10:09:09;38.10;50.50
17669;DHT22;8953;48.694;8.940;2022-07-06T10:11:38;38.30;52.00
17669;DHT22;8953;48.694;8.940;2022-07-06T10:14:06;38.50;50.50
17669;DHT22;8953;48.694;8.940;2022-07-06T10:16:35;38.90;51.20
17669;DHT22;8953;48.694;8.940;2022-07-06T10:19:05;39.40;50.20
17669;DHT22;8953;48.694;8.940;2022-07-06T10:21:34;36.80;50.30
17669;DHT22;8953;48.694;8.940;2022-07-06T10:24:03;35.80;53.40
17669;DHT22;8953;48.694;8.940;2022-07-06T10:26:32;35.00;54.00
17669;DHT22;8953;48.694;8.940;2022-07-06T10:29:00;34.00;54.90
17669;DHT22;8953;48.694;8.940;2022-07-06T10:31:31;33.30;57.00
17669;DHT22;8953;48.694;8.940;2022-07-06T10:34:00;33.60;56.60
17669;DHT22;8953;48.694;8.940;2022-07-06T10:36:28;34.90;55.90
17669;DHT22;8953;48.694;8.940;2022-07-06T10:38:56;35.50;54.50
17669;DHT22;8953;48.694;8.940;2022-07-06T10:41:45;36.10;54.80
17669;DHT22;8953;48.694;8.940;2022-07-06T10:44:15;37.10;53.00
17669;DHT22;8953;48.694;8.940;2022-07-06T10:46:50;38.30;52.20
17669;DHT22;8953;48.694;8.940;2022-07-06T10:49:17;38.60;51.00
17669;DHT22;8953;48.694;8.940;2022-07-06T10:51:45;38.50;51.60
17669;DHT22;8953;48.694;8.940;2022-07-06T10:54:13;38.90;51.10
17669;DHT22;8953;48.694;8.940;2022-07-06T10:56:45;38.20;49.30
17669;DHT22;8953;48.694;8.940;2022-07-06T10:59:13;37.80;53.40
17669;DHT22;8953;48.694;8.940;2022-07-06T11:01:42;37.70;50.40
17669;DHT22;8953;48.694;8.940;2022-07-06T11:04:31;37.00;51.80
17669;DHT22;8953;48.694;8.940;2022-07-06T11:07:07;36.10;53.00
17669;DHT22;8953;48.694;8.940;2022-07-06T11:09:36;36.80;52.70
17669;DHT22;8953;48.694;8.940;2022-07-06T11:12:15;37.70;51.40
17669;DHT22;8953;48.694;8.940;2022-07-06T11:14:44;38.10;51.20
17669;DHT22;8953;48.694;8.940;2022-07-06T11:17:12;38.20;50.30
17669;DHT22;8953;48.694;8.940;2022-07-06T11:19:48;38.40;51.70
17669;DHT22;8953;48.694;8.940;2022-07-06T11:22:16;38.40;51.30
17669;DHT22;8953;48.694;8.940;2022-07-06T11:24:45;38.70;50.50
17669;DHT22;8953;48.694;8.940;2022-07-06T11:27:14;38.70;49.70
17669;DHT22;8953;48.694;8.940;2022-07-06T11:29:41;38.30;49.80
17669;DHT22;8953;48.694;8.940;2022-07-06T11:32:11;37.20;51.50
17669;DHT22;8953;48.694;8.940;2022-07-06T11:34:41;34.70;53.60
17669;DHT22;8953;48.694;8.940;2022-07-06T11:37:20;32.90;56.60
17669;DHT22;8953;48.694;8.940;2022-07-06T11:39:49;31.60;57.10
17669;DHT22;8953;48.694;8.940;2022-07-06T11:42:18;30.60;59.10
17669;DHT22;8953;48.694;8.940;2022-07-06T11:44:46;30.40;60.80
17669;DHT22;8953;48.694;8.940;2022-07-06T11:47:15;30.10;61.40
17669;DHT22;8953;48.694;8.940;2022-07-06T11:49:43;29.90;61.00
17669;DHT22;8953;48.694;8.940;2022-07-06T11:52:13;29.60;61.10
17669;DHT22;8953;48.694;8.940;2022-07-06T11:54:41;29.20;62.80
17669;DHT22;8953;48.694;8.940;2022-07-06T11:57:10;28.80;63.20
17669;DHT22;8953;48.694;8.940;2022-07-06T11:59:40;28.60;64.70
17669;DHT22;8953;48.694;8.940;2022-07-06T12:02:10;28.40;64.10
17669;DHT22;8953;48.694;8.940;2022-07-06T12:04:39;28.10;65.50
17669;DHT22;8953;48.694;8.940;2022-07-06T12:07:09;28.00;65.30
17669;DHT22;8953;48.694;8.940;2022-07-06T12:09:39;28.30;66.50
17669;DHT22;8953;48.694;8.940;2022-07-06T12:12:08;28.40;64.50
17669;DHT22;8953;48.694;8.940;2022-07-06T12:14:37;28.20;65.30
17669;DHT22;8953;48.694;8.940;2022-07-06T12:17:06;28.00;64.90
17669;DHT22;8953;48.694;8.940;2022-07-06T12:19:35;27.90;66.10
17669;DHT22;8953;48.694;8.940;2022-07-06T12:22:03;27.80;66.50
17669;DHT22;8953;48.694;8.940;2022-07-06T12:24:32;28.00;67.90
17669;DHT22;8953;48.694;8.940;2022-07-06T12:27:10;28.40;65.40
17669;DHT22;8953;48.694;8.940;2022-07-06T12:29:38;28.30;64.30
17669;DHT22;8953;48.694;8.940;2022-07-06T12:32:13;28.10;65.50
17669;DHT22;8953;48.694;8.940;2022-07-06T12:34:40;27.90;66.80
17669;DHT22;8953;48.694;8.940;2022-07-06T12:37:09;28.20;67.00
17669;DHT22;8953;48.694;8.940;2022-07-06T12:39:41;28.70;64.30
17669;DHT22;8953;48.694;8.940;2022-07-06T12:42:09;28.90;65.20
17669;DHT22;8953;48.694;8.940;2022-07-06T12:44:42;28.90;65.30
17669;DHT22;8953;48.694;8.940;2022-07-06T12:47:11;29.10;65.00
17669;DHT22;8953;48.694;8.940;2022-07-06T12:49:39;29.20;63.70
17669;DHT22;8953;48.694;8.940;2022-07-06T12:52:11;29.00;64.20
17669;DHT22;8953;48.694;8.940;2022-07-06T12:54:43;28.80;64.60
17669;DHT22;8953;48.694;8.940;2022-07-06T12:57:11;28.60;64.20
17669;DHT22;8953;48.694;8.940;2022-07-06T12:59:41;28.40;65.40
17669;DHT22;8953;48.694;8.940;2022-07-06T13:02:17;28.00;65.00
17669;DHT22;8953;48.694;8.940;2022-07-06T13:04:54;27.70;64.50
17669;DHT22;8953;48.694;8.940;2022-07-06T13:07:26;27.40;66.30
17669;DHT22;8953;48.694;8.940;2022-07-06T13:09:54;27.20;66.70
17669;DHT22;8953;48.694;8.940;2022-07-06T13:12:23;27.10;67.20
17669;DHT22;8953;48.694;8.940;2022-07-06T13:14:51;26.90;68.00
17669;DHT22;8953;48.694;8.940;2022-07-06T13:17:20;26.70;68.00
17669;DHT22;8953;48.694;8.940;2022-07-06T13:19:48;26.50;67.00
17669;DHT22;8953;48.694;8.940;2022-07-06T13:22:15;26.40;69.80
17669;DHT22;8953;48.694;8.940;2022-07-06T13:24:42;26.20;69.40
17669;DHT22;8953;48.694;8.940;2022-07-06T13:27:10;26.00;70.00
17669;DHT22;8953;48.694;8.940;2022-07-06T13:29:37;26.00;69.50
17669;DHT22;8953;48.694;8.940;2022-07-06T13:32:05;25.80;69.50
17669;DHT22;8953;48.694;8.940;2022-07-06T13:34:34;25.80;69.00
17669;DHT22;8953;48.694;8.940;2022-07-06T13:37:03;25.70;70.50
17669;DHT22;8953;48.694;8.940;2022-07-06T13:39:32;25.70;69.30
17669;DHT22;8953;48.694;8.940;2022-07-06T13:42:00;25.40;70.30
17669;DHT22;8953;48.694;8.940;2022-07-06T13:44:27;25.00;72.60
17669;DHT22;8953;48.694;8.940;2022-07-06T13:46:54;24.90;72.00
17669;DHT22;8953;48.694;8.940;2022-07-06T13:49:21;24.90;71.60
17669;DHT22;8953;48.694;8.940;2022-07-06T13:51:50;25.00;72.50
17669;DHT22;8953;48.694;8.940;2022-07-06T13:54:17;25.00;71.40
17669;DHT22;8953;48.694;8.940;2022-07-06T13:56:44;25.00;71.30
17669;DHT22;8953;48.694;8.940;2022-07-06T13:59:11;24.90;71.30
17669;DHT22;8953;48.694;8.940;2022-07-06T14:01:38;24.70;71.70
17669;DHT22;8953;48.694;8.940;2022-07-06T14:04:06;24.50;71.60
17669;DHT22;8953;48.694;8.940;2022-07-06T14:06:33;24.70;71.10
17669;DHT22;8953;48.694;8.940;2022-07-06T14:09:02;24.60;71.00
17669;DHT22;8953;48.694;8.940;2022-07-06T14:11:29;24.50;71.70
17669;DHT22;8953;48.694;8.940;2022-07-06T14:13:56;24.40;72.80
17669;DHT22;8953;48.694;8.940;2022-07-06T14:16:24;24.30;72.40
17669;DHT22;8953;48.694;8.940;2022-07-06T14:18:51;24.20;72.70
17669;DHT22;8953;48.694;8.940;2022-07-06T14:21:18;24.30;73.40
17669;DHT22;8953;48.694;8.940;2022-07-06T14:23:45;24.30;73.10
17669;DHT22;8953;48.694;8.940;2022-07-06T14:26:15;24.40;73.30
17669;DHT22;8953;48.694;8.940;2022-07-06T14:28:42;24.40;73.60
17669;DHT22;8953;48.694;8.940;2022-07-06T14:31:10;24.30;74.00
17669;DHT22;8953;48.694;8.940;2022-07-06T14:33:37;24.30;72.60
17669;DHT22;8953;48.694;8.940;2022-07-06T14:36:04;24.30;73.00
17669;DHT22;8953;48.694;8.940;2022-07-06T14:38:31;24.10;74.00
17669;DHT22;8953;48.694;8.940;2022-07-06T14:40:59;24.10;73.40
17669;DHT22;8953;48.694;8.940;2022-07-06T14:43:28;24.00;74.30
17669;DHT22;8953;48.694;8.940;2022-07-06T14:45:55;23.90;74.30
17669;DHT22;8953;48.694;8.940;2022-07-06T14:48:22;23.80;74.70
17669;DHT22;8953;48.694;8.940;2022-07-06T14:50:49;23.70;75.40
17669;DHT22;8953;48.694;8.940;2022-07-06T14:53:16;23.60;74.30
17669;DHT22;8953;48.694;8.940;2022-07-06T14:55:44;23.60;76.20
17669;DHT22;8953;48.694;8.940;2022-07-06T14:58:12;23.60;74.40
17669;DHT22;8953;48.694;8.940;2022-07-06T15:00:44;23.60;74.30
17669;DHT22;8953;48.694;8.940;2022-07-06T15:03:11;23.80;74.80
17669;DHT22;8953;48.694;8.940;2022-07-06T15:05:39;24.10;73.70
17669;DHT22;8953;48.694;8.940;2022-07-06T15:08:09;24.20;74.00
17669;DHT22;8953;48.694;8.940;2022-07-06T15:10:36;24.40;72.80
17669;DHT22;8953;48.694;8.940;2022-07-06T15:13:03;24.60;73.00
17669;DHT22;8953;48.694;8.940;2022-07-06T15:15:30;24.90;72.40
17669;DHT22;8953;48.694;8.940;2022-07-06T15:17:59;25.00;72.70
17669;DHT22;8953;48.694;8.940;2022-07-06T15:20:26;25.10;70.70
17669;DHT22;8953;48.694;8.940;2022-07-06T15:22:53;24.90;70.90
17669;DHT22;8953;48.694;8.940;2022-07-06T15:25:20;24.60;71.50
17669;DHT22;8953;48.694;8.940;2022-07-06T15:27:50;24.70;72.40
17669;DHT22;8953;48.694;8.940;2022-07-06T15:30:17;24.80;72.80
17669;DHT22;8953;48.694;8.940;2022-07-06T15:32:45;24.80;70.80
17669;DHT22;8953;48.694;8.940;2022-07-06T15:35:14;24.70;71.30
17669;DHT22;8953;48.694;8.940;2022-07-06T15:37:41;24.50;71.00
17669;DHT22;8953;48.694;8.940;2022-07-06T15:40:09;24.30;71.80
17669;DHT22;8953;48.694;8.940;2022-07-06T15:42:38;24.20;72.00
17669;DHT22;8953;48.694;8.940;2022-07-06T15:45:06;24.20;71.80
17669;DHT22;8953;48.694;8.940;2022-07-06T15:47:33;24.30;72.20
17669;DHT22;8953;48.694;8.940;2022-07-06T15:50:00;24.30;70.50
17669;DHT22;8953;48.694;8.940;2022-07-06T15:52:29;24.30;70.40